sensor_id;sensor_type;location;lat;lon;timestamp;P1;durP1;ratioP1;P2;durP2;ratioP2
53145;SDS011;39042;53.150;5.898;2023-12-28T00:02:14;3.23;;;2.43;;
53145;SDS011;39042;53.150;5.898;2023-12-28T00:04:40;8.48;;;3.15;;
53145;SDS011;39042;53.150;5.898;2023-12-28T00:07:06;7.93;;;2.37;;
53145;SDS011;39042;53.150;5.898;2023-12-28T00:09:32;6.27;;;2.03;;
53145;SDS011;39042;53.150;5.898;2023-12-28T00:11:58;10.87;;;3.73;;
53145;SDS011;39042;53.150;5.898;2023-12-28T00:14:24;13.05;;;3.10;;
53145;SDS011;39042;53.150;5.898;2023-12-28T00:16:50;12.97;;;1.90;;
53145;SDS011;39042;53.150;5.898;2023-12-28T00:19:15;15.13;;;2.50;;
53145;SDS011;39042;53.150;5.898;2023-12-28T00:24:09;14.70;;;2.90;;
53145;SDS011;39042;53.150;5.898;2023-12-28T00:26:35;17.57;;;2.63;;
53145;SDS011;39042;53.150;5.898;2023-12-28T00:29:03;15.38;;;2.97;;
53145;SDS011;39042;53.150;5.898;2023-12-28T00:31:28;17.70;;;3.00;;
53145;SDS011;39042;53.150;5.898;2023-12-28T00:33:54;17.20;;;2.07;;
53145;SDS011;39042;53.150;5.898;2023-12-28T00:36:20;17.80;;;2.60;;
53145;SDS011;39042;53.150;5.898;2023-12-28T00:38:46;14.70;;;2.30;;
53145;SDS011;39042;53.150;5.898;2023-12-28T00:41:11;18.80;;;2.70;;
53145;SDS011;39042;53.150;5.898;2023-12-28T00:43:37;20.90;;;4.10;;
53145;SDS011;39042;53.150;5.898;2023-12-28T00:46:03;19.37;;;3.43;;
53145;SDS011;39042;53.150;5.898;2023-12-28T00:48:29;15.07;;;3.20;;
53145;SDS011;39042;53.150;5.898;2023-12-28T00:50:55;22.50;;;3.10;;
53145;SDS011;39042;53.150;5.898;2023-12-28T00:53:25;24.75;;;3.33;;
53145;SDS011;39042;53.150;5.898;2023-12-28T00:55:51;15.20;;;2.90;;
53145;SDS011;39042;53.150;5.898;2023-12-28T00:58:17;19.90;;;2.70;;
53145;SDS011;39042;53.150;5.898;2023-12-28T01:00:43;20.77;;;2.40;;
53145;SDS011;39042;53.150;5.898;2023-12-28T01:03:09;24.10;;;3.43;;
53145;SDS011;39042;53.150;5.898;2023-12-28T01:05:35;24.25;;;3.05;;
53145;SDS011;39042;53.150;5.898;2023-12-28T01:08:02;17.63;;;2.95;;
53145;SDS011;39042;53.150;5.898;2023-12-28T01:10:28;24.25;;;3.10;;
53145;SDS011;39042;53.150;5.898;2023-12-28T01:12:54;20.83;;;2.90;;
53145;SDS011;39042;53.150;5.898;2023-12-28T01:15:20;19.00;;;2.70;;
53145;SDS011;39042;53.150;5.898;2023-12-28T01:17:46;18.73;;;2.80;;
53145;SDS011;39042;53.150;5.898;2023-12-28T01:20:12;24.52;;;3.03;;
53145;SDS011;39042;53.150;5.898;2023-12-28T01:22:38;22.80;;;3.60;;
53145;SDS011;39042;53.150;5.898;2023-12-28T01:25:04;17.70;;;2.17;;
53145;SDS011;39042;53.150;5.898;2023-12-28T01:27:44;22.95;;;3.33;;
53145;SDS011;39042;53.150;5.898;2023-12-28T01:30:15;19.95;;;3.58;;
53145;SDS011;39042;53.150;5.898;2023-12-28T02:03:38;18.00;;;2.22;;
53145;SDS011;39042;53.150;5.898;2023-12-28T02:21:39;21.17;;;3.13;;
53145;SDS011;39042;53.150;5.898;2023-12-28T02:26:31;15.00;;;2.28;;
53145;SDS011;39042;53.150;5.898;2023-12-28T02:28:57;18.20;;;2.63;;
53145;SDS011;39042;53.150;5.898;2023-12-28T02:31:28;24.27;;;3.03;;
53145;SDS011;39042;53.150;5.898;2023-12-28T02:34:12;22.70;;;3.03;;
53145;SDS011;39042;53.150;5.898;2023-12-28T02:36:45;14.60;;;2.00;;
53145;SDS011;39042;53.150;5.898;2023-12-28T02:39:13;16.25;;;2.92;;
53145;SDS011;39042;53.150;5.898;2023-12-28T02:41:42;17.63;;;1.83;;
53145;SDS011;39042;53.150;5.898;2023-12-28T02:44:10;10.38;;;1.30;;
53145;SDS011;39042;53.150;5.898;2023-12-28T02:46:36;16.83;;;1.80;;
53145;SDS011;39042;53.150;5.898;2023-12-28T02:49:03;13.38;;;2.10;;
53145;SDS011;39042;53.150;5.898;2023-12-28T02:51:31;14.70;;;1.85;;
53145;SDS011;39042;53.150;5.898;2023-12-28T02:53:57;12.73;;;1.77;;
53145;SDS011;39042;53.150;5.898;2023-12-28T02:56:23;13.23;;;1.67;;
53145;SDS011;39042;53.150;5.898;2023-12-28T02:58:49;10.80;;;1.50;;
53145;SDS011;39042;53.150;5.898;2023-12-28T03:01:15;14.47;;;1.87;;
53145;SDS011;39042;53.150;5.898;2023-12-28T03:03:42;10.02;;;1.70;;
53145;SDS011;39042;53.150;5.898;2023-12-28T03:06:07;12.93;;;1.40;;
53145;SDS011;39042;53.150;5.898;2023-12-28T03:08:33;11.33;;;1.60;;
53145;SDS011;39042;53.150;5.898;2023-12-28T03:10:59;10.17;;;1.77;;
53145;SDS011;39042;53.150;5.898;2023-12-28T03:13:25;9.48;;;1.67;;
53145;SDS011;39042;53.150;5.898;2023-12-28T03:15:51;12.73;;;2.00;;
53145;SDS011;39042;53.150;5.898;2023-12-28T03:18:17;14.53;;;2.37;;
53145;SDS011;39042;53.150;5.898;2023-12-28T03:20:43;13.73;;;2.83;;
53145;SDS011;39042;53.150;5.898;2023-12-28T03:23:08;11.15;;;1.67;;
53145;SDS011;39042;53.150;5.898;2023-12-28T03:25:36;16.98;;;2.17;;
53145;SDS011;39042;53.150;5.898;2023-12-28T03:28:02;9.13;;;2.00;;
53145;SDS011;39042;53.150;5.898;2023-12-28T03:30:28;9.93;;;1.52;;
53145;SDS011;39042;53.150;5.898;2023-12-28T03:32:54;9.07;;;1.57;;
53145;SDS011;39042;53.150;5.898;2023-12-28T03:35:20;12.07;;;1.50;;
53145;SDS011;39042;53.150;5.898;2023-12-28T03:37:46;8.67;;;2.20;;
53145;SDS011;39042;53.150;5.898;2023-12-28T03:40:12;15.83;;;2.17;;
53145;SDS011;39042;53.150;5.898;2023-12-28T03:42:38;15.23;;;1.35;;
53145;SDS011;39042;53.150;5.898;2023-12-28T03:45:04;10.77;;;1.58;;
53145;SDS011;39042;53.150;5.898;2023-12-28T03:47:30;11.13;;;2.08;;
53145;SDS011;39042;53.150;5.898;2023-12-28T03:49:56;8.50;;;1.30;;
53145;SDS011;39042;53.150;5.898;2023-12-28T03:52:22;12.30;;;1.55;;
53145;SDS011;39042;53.150;5.898;2023-12-28T03:54:51;13.82;;;1.92;;
53145;SDS011;39042;53.150;5.898;2023-12-28T03:57:18;9.75;;;1.52;;
53145;SDS011;39042;53.150;5.898;2023-12-28T03:59:43;14.67;;;1.90;;
53145;SDS011;39042;53.150;5.898;2023-12-28T04:02:09;12.53;;;2.33;;
53145;SDS011;39042;53.150;5.898;2023-12-28T04:04:35;9.40;;;1.33;;
53145;SDS011;39042;53.150;5.898;2023-12-28T04:07:01;12.47;;;2.47;;
53145;SDS011;39042;53.150;5.898;2023-12-28T04:09:27;12.07;;;1.47;;
53145;SDS011;39042;53.150;5.898;2023-12-28T04:11:52;16.60;;;1.93;;
53145;SDS011;39042;53.150;5.898;2023-12-28T04:14:18;8.80;;;1.33;;
53145;SDS011;39042;53.150;5.898;2023-12-28T04:16:44;10.80;;;1.45;;
53145;SDS011;39042;53.150;5.898;2023-12-28T04:19:10;12.70;;;1.20;;
53145;SDS011;39042;53.150;5.898;2023-12-28T04:21:36;10.98;;;1.48;;
53145;SDS011;39042;53.150;5.898;2023-12-28T04:24:03;17.67;;;1.85;;
53145;SDS011;39042;53.150;5.898;2023-12-28T04:26:29;17.55;;;1.83;;
53145;SDS011;39042;53.150;5.898;2023-12-28T04:28:55;13.55;;;2.22;;
53145;SDS011;39042;53.150;5.898;2023-12-28T04:31:21;12.67;;;2.13;;
53145;SDS011;39042;53.150;5.898;2023-12-28T04:33:47;13.03;;;1.80;;
53145;SDS011;39042;53.150;5.898;2023-12-28T04:36:13;21.60;;;1.63;;
53145;SDS011;39042;53.150;5.898;2023-12-28T04:38:39;16.70;;;1.83;;
53145;SDS011;39042;53.150;5.898;2023-12-28T04:41:05;14.95;;;2.90;;
53145;SDS011;39042;53.150;5.898;2023-12-28T04:43:31;18.50;;;1.90;;
53145;SDS011;39042;53.150;5.898;2023-12-28T04:45:56;17.10;;;2.20;;
53145;SDS011;39042;53.150;5.898;2023-12-28T04:48:24;15.05;;;2.30;;
53145;SDS011;39042;53.150;5.898;2023-12-28T04:50:51;21.13;;;2.28;;
53145;SDS011;39042;53.150;5.898;2023-12-28T04:53:17;12.88;;;1.52;;
53145;SDS011;39042;53.150;5.898;2023-12-28T04:55:43;16.70;;;1.90;;
53145;SDS011;39042;53.150;5.898;2023-12-28T04:58:10;16.43;;;1.60;;
53145;SDS011;39042;53.150;5.898;2023-12-28T05:00:37;14.02;;;1.50;;
53145;SDS011;39042;53.150;5.898;2023-12-28T05:03:03;17.80;;;2.27;;
53145;SDS011;39042;53.150;5.898;2023-12-28T05:05:29;16.60;;;1.70;;
53145;SDS011;39042;53.150;5.898;2023-12-28T05:07:55;16.80;;;2.33;;
53145;SDS011;39042;53.150;5.898;2023-12-28T05:10:21;19.90;;;2.67;;
53145;SDS011;39042;53.150;5.898;2023-12-28T05:12:48;19.10;;;2.85;;
53145;SDS011;39042;53.150;5.898;2023-12-28T05:15:14;23.80;;;2.20;;
53145;SDS011;39042;53.150;5.898;2023-12-28T05:17:40;18.20;;;2.53;;
53145;SDS011;39042;53.150;5.898;2023-12-28T05:20:06;22.40;;;2.78;;
53145;SDS011;39042;53.150;5.898;2023-12-28T05:22:33;17.60;;;2.05;;
53145;SDS011;39042;53.150;5.898;2023-12-28T05:24:58;19.97;;;3.60;;
53145;SDS011;39042;53.150;5.898;2023-12-28T05:27:25;22.92;;;3.05;;
53145;SDS011;39042;53.150;5.898;2023-12-28T05:29:50;20.17;;;3.30;;
53145;SDS011;39042;53.150;5.898;2023-12-28T05:32:16;21.80;;;2.97;;
53145;SDS011;39042;53.150;5.898;2023-12-28T05:34:42;24.73;;;3.43;;
53145;SDS011;39042;53.150;5.898;2023-12-28T05:37:08;20.33;;;2.83;;
53145;SDS011;39042;53.150;5.898;2023-12-28T05:39:34;23.93;;;2.50;;
53145;SDS011;39042;53.150;5.898;2023-12-28T05:42:00;19.67;;;2.83;;
53145;SDS011;39042;53.150;5.898;2023-12-28T05:44:25;21.55;;;2.90;;
53145;SDS011;39042;53.150;5.898;2023-12-28T05:46:51;22.07;;;2.63;;
53145;SDS011;39042;53.150;5.898;2023-12-28T05:49:17;15.03;;;2.77;;
53145;SDS011;39042;53.150;5.898;2023-12-28T05:51:43;14.83;;;2.60;;
53145;SDS011;39042;53.150;5.898;2023-12-28T05:54:09;20.15;;;3.10;;
53145;SDS011;39042;53.150;5.898;2023-12-28T05:56:35;18.95;;;2.80;;
53145;SDS011;39042;53.150;5.898;2023-12-28T05:59:01;25.27;;;3.28;;
53145;SDS011;39042;53.150;5.898;2023-12-28T06:01:27;21.97;;;2.67;;
53145;SDS011;39042;53.150;5.898;2023-12-28T06:03:53;28.20;;;3.50;;
53145;SDS011;39042;53.150;5.898;2023-12-28T06:06:19;24.70;;;3.30;;
53145;SDS011;39042;53.150;5.898;2023-12-28T06:08:46;15.15;;;2.28;;
53145;SDS011;39042;53.150;5.898;2023-12-28T06:11:12;23.08;;;2.97;;
53145;SDS011;39042;53.150;5.898;2023-12-28T06:13:38;27.73;;;2.80;;
53145;SDS011;39042;53.150;5.898;2023-12-28T06:16:03;19.37;;;2.40;;
53145;SDS011;39042;53.150;5.898;2023-12-28T06:18:29;21.55;;;3.10;;
53145;SDS011;39042;53.150;5.898;2023-12-28T06:20:56;25.77;;;3.45;;
53145;SDS011;39042;53.150;5.898;2023-12-28T06:23:22;21.57;;;2.73;;
53145;SDS011;39042;53.150;5.898;2023-12-28T06:25:47;21.57;;;3.30;;
53145;SDS011;39042;53.150;5.898;2023-12-28T06:28:13;21.57;;;2.67;;
53145;SDS011;39042;53.150;5.898;2023-12-28T06:30:39;31.10;;;5.33;;
53145;SDS011;39042;53.150;5.898;2023-12-28T06:33:05;24.30;;;3.63;;
53145;SDS011;39042;53.150;5.898;2023-12-28T06:37:57;24.27;;;4.28;;
53145;SDS011;39042;53.150;5.898;2023-12-28T06:40:23;20.17;;;2.60;;
53145;SDS011;39042;53.150;5.898;2023-12-28T06:42:49;27.20;;;3.77;;
53145;SDS011;39042;53.150;5.898;2023-12-28T06:45:15;22.75;;;3.10;;
53145;SDS011;39042;53.150;5.898;2023-12-28T06:47:40;28.90;;;4.57;;
53145;SDS011;39042;53.150;5.898;2023-12-28T06:50:06;22.57;;;3.57;;
53145;SDS011;39042;53.150;5.898;2023-12-28T06:52:33;27.75;;;3.55;;
53145;SDS011;39042;53.150;5.898;2023-12-28T06:54:58;26.93;;;3.50;;
53145;SDS011;39042;53.150;5.898;2023-12-28T06:57:24;26.20;;;3.53;;
53145;SDS011;39042;53.150;5.898;2023-12-28T06:59:50;24.23;;;3.57;;
53145;SDS011;39042;53.150;5.898;2023-12-28T07:02:16;28.30;;;4.03;;
53145;SDS011;39042;53.150;5.898;2023-12-28T07:04:42;29.50;;;4.18;;
53145;SDS011;39042;53.150;5.898;2023-12-28T07:07:08;29.20;;;4.93;;
53145;SDS011;39042;53.150;5.898;2023-12-28T07:12:01;23.17;;;3.55;;
53145;SDS011;39042;53.150;5.898;2023-12-28T07:14:27;32.38;;;4.18;;
53145;SDS011;39042;53.150;5.898;2023-12-28T07:16:53;28.20;;;4.17;;
53145;SDS011;39042;53.150;5.898;2023-12-28T07:19:19;25.43;;;3.80;;
53145;SDS011;39042;53.150;5.898;2023-12-28T07:21:44;26.63;;;4.23;;
53145;SDS011;39042;53.150;5.898;2023-12-28T07:24:10;29.73;;;4.57;;
53145;SDS011;39042;53.150;5.898;2023-12-28T07:26:36;30.88;;;4.20;;
53145;SDS011;39042;53.150;5.898;2023-12-28T07:29:02;33.90;;;4.70;;
53145;SDS011;39042;53.150;5.898;2023-12-28T07:31:29;29.15;;;4.57;;
53145;SDS011;39042;53.150;5.898;2023-12-28T07:33:56;27.23;;;3.97;;
53145;SDS011;39042;53.150;5.898;2023-12-28T07:36:22;29.27;;;4.63;;
53145;SDS011;39042;53.150;5.898;2023-12-28T07:38:48;34.15;;;4.38;;
53145;SDS011;39042;53.150;5.898;2023-12-28T07:41:14;33.97;;;5.17;;
53145;SDS011;39042;53.150;5.898;2023-12-28T07:43:41;26.80;;;4.20;;
53145;SDS011;39042;53.150;5.898;2023-12-28T07:48:32;32.40;;;5.27;;
53145;SDS011;39042;53.150;5.898;2023-12-28T07:50:58;35.93;;;5.43;;
53145;SDS011;39042;53.150;5.898;2023-12-28T07:53:24;36.17;;;4.83;;
53145;SDS011;39042;53.150;5.898;2023-12-28T07:55:50;36.67;;;5.87;;
53145;SDS011;39042;53.150;5.898;2023-12-28T07:58:16;31.47;;;5.17;;
53145;SDS011;39042;53.150;5.898;2023-12-28T08:00:41;42.00;;;7.30;;
53145;SDS011;39042;53.150;5.898;2023-12-28T08:03:07;31.90;;;4.90;;
53145;SDS011;39042;53.150;5.898;2023-12-28T08:05:33;37.87;;;5.50;;
53145;SDS011;39042;53.150;5.898;2023-12-28T08:07:59;35.63;;;6.33;;
53145;SDS011;39042;53.150;5.898;2023-12-28T08:10:24;40.40;;;5.10;;
53145;SDS011;39042;53.150;5.898;2023-12-28T08:12:50;42.23;;;5.50;;
53145;SDS011;39042;53.150;5.898;2023-12-28T08:15:16;34.37;;;5.70;;
53145;SDS011;39042;53.150;5.898;2023-12-28T08:17:42;29.87;;;4.83;;
53145;SDS011;39042;53.150;5.898;2023-12-28T08:20:07;31.40;;;5.77;;
53145;SDS011;39042;53.150;5.898;2023-12-28T08:22:33;38.28;;;5.75;;
53145;SDS011;39042;53.150;5.898;2023-12-28T08:24:59;40.80;;;5.27;;
53145;SDS011;39042;53.150;5.898;2023-12-28T08:27:25;35.10;;;5.37;;
53145;SDS011;39042;53.150;5.898;2023-12-28T08:29:51;37.47;;;5.00;;
53145;SDS011;39042;53.150;5.898;2023-12-28T08:32:17;35.43;;;5.00;;
53145;SDS011;39042;53.150;5.898;2023-12-28T08:34:42;39.30;;;5.30;;
53145;SDS011;39042;53.150;5.898;2023-12-28T08:37:08;39.70;;;5.30;;
53145;SDS011;39042;53.150;5.898;2023-12-28T08:39:34;32.27;;;4.97;;
53145;SDS011;39042;53.150;5.898;2023-12-28T08:42:00;38.45;;;5.60;;
53145;SDS011;39042;53.150;5.898;2023-12-28T08:44:26;33.92;;;5.43;;
53145;SDS011;39042;53.150;5.898;2023-12-28T08:46:52;38.70;;;5.80;;
53145;SDS011;39042;53.150;5.898;2023-12-28T08:49:18;40.27;;;4.73;;
53145;SDS011;39042;53.150;5.898;2023-12-28T08:51:44;36.83;;;4.63;;
53145;SDS011;39042;53.150;5.898;2023-12-28T08:54:09;37.90;;;4.57;;
53145;SDS011;39042;53.150;5.898;2023-12-28T08:56:35;29.87;;;5.20;;
53145;SDS011;39042;53.150;5.898;2023-12-28T08:59:01;35.00;;;5.17;;
53145;SDS011;39042;53.150;5.898;2023-12-28T09:01:28;28.40;;;5.10;;
53145;SDS011;39042;53.150;5.898;2023-12-28T09:03:57;29.90;;;4.75;;
53145;SDS011;39042;53.150;5.898;2023-12-28T09:06:25;36.42;;;5.47;;
53145;SDS011;39042;53.150;5.898;2023-12-28T09:08:51;39.00;;;6.07;;
53145;SDS011;39042;53.150;5.898;2023-12-28T09:11:19;31.35;;;4.85;;
53145;SDS011;39042;53.150;5.898;2023-12-28T09:13:45;38.60;;;5.18;;
53145;SDS011;39042;53.150;5.898;2023-12-28T09:16:12;32.30;;;4.63;;
53145;SDS011;39042;53.150;5.898;2023-12-28T09:18:39;38.10;;;4.85;;
53145;SDS011;39042;53.150;5.898;2023-12-28T09:21:06;29.42;;;5.05;;
53145;SDS011;39042;53.150;5.898;2023-12-28T09:25:59;39.95;;;4.88;;
53145;SDS011;39042;53.150;5.898;2023-12-28T09:28:26;25.52;;;5.55;;
53145;SDS011;39042;53.150;5.898;2023-12-28T09:30:52;34.15;;;5.90;;
53145;SDS011;39042;53.150;5.898;2023-12-28T09:33:18;37.63;;;5.17;;
53145;SDS011;39042;53.150;5.898;2023-12-28T09:35:44;25.30;;;4.65;;
53145;SDS011;39042;53.150;5.898;2023-12-28T09:38:10;32.40;;;4.57;;
53145;SDS011;39042;53.150;5.898;2023-12-28T09:40:36;27.70;;;4.67;;
53145;SDS011;39042;53.150;5.898;2023-12-28T09:45:50;30.55;;;5.00;;
53145;SDS011;39042;53.150;5.898;2023-12-28T09:48:17;21.88;;;5.13;;
53145;SDS011;39042;53.150;5.898;2023-12-28T09:50:45;28.58;;;5.13;;
53145;SDS011;39042;53.150;5.898;2023-12-28T09:53:14;32.15;;;4.40;;
53145;SDS011;39042;53.150;5.898;2023-12-28T09:55:40;31.00;;;4.50;;
53145;SDS011;39042;53.150;5.898;2023-12-28T09:58:06;25.83;;;4.05;;
53145;SDS011;39042;53.150;5.898;2023-12-28T10:00:32;32.90;;;4.93;;
53145;SDS011;39042;53.150;5.898;2023-12-28T10:02:59;39.03;;;4.85;;
53145;SDS011;39042;53.150;5.898;2023-12-28T10:05:25;22.87;;;4.50;;
53145;SDS011;39042;53.150;5.898;2023-12-28T10:07:51;32.63;;;5.13;;
53145;SDS011;39042;53.150;5.898;2023-12-28T10:10:16;23.63;;;3.33;;
53145;SDS011;39042;53.150;5.898;2023-12-28T10:12:43;32.85;;;3.90;;
53145;SDS011;39042;53.150;5.898;2023-12-28T10:15:09;33.25;;;4.28;;
53145;SDS011;39042;53.150;5.898;2023-12-28T10:17:35;27.00;;;3.55;;
53145;SDS011;39042;53.150;5.898;2023-12-28T10:20:04;29.00;;;4.95;;
53145;SDS011;39042;53.150;5.898;2023-12-28T10:22:34;25.67;;;4.15;;
53145;SDS011;39042;53.150;5.898;2023-12-28T10:25:01;23.43;;;3.23;;
53145;SDS011;39042;53.150;5.898;2023-12-28T10:27:28;27.13;;;4.82;;
53145;SDS011;39042;53.150;5.898;2023-12-28T10:29:55;26.05;;;3.83;;
53145;SDS011;39042;53.150;5.898;2023-12-28T10:34:53;28.02;;;4.20;;
53145;SDS011;39042;53.150;5.898;2023-12-28T10:37:20;27.15;;;4.60;;
53145;SDS011;39042;53.150;5.898;2023-12-28T10:39:48;35.40;;;4.25;;
53145;SDS011;39042;53.150;5.898;2023-12-28T10:42:28;29.77;;;4.70;;
53145;SDS011;39042;53.150;5.898;2023-12-28T10:44:59;26.35;;;4.25;;
53145;SDS011;39042;53.150;5.898;2023-12-28T10:47:28;39.75;;;5.38;;
53145;SDS011;39042;53.150;5.898;2023-12-28T10:50:03;33.33;;;4.50;;
53145;SDS011;39042;53.150;5.898;2023-12-28T10:52:31;31.63;;;4.45;;
53145;SDS011;39042;53.150;5.898;2023-12-28T10:57:59;33.35;;;4.10;;
53145;SDS011;39042;53.150;5.898;2023-12-28T11:00:30;29.63;;;4.28;;
53145;SDS011;39042;53.150;5.898;2023-12-28T11:03:02;20.92;;;4.25;;
53145;SDS011;39042;53.150;5.898;2023-12-28T11:05:30;25.50;;;5.13;;
53145;SDS011;39042;53.150;5.898;2023-12-28T11:07:58;27.58;;;4.03;;
53145;SDS011;39042;53.150;5.898;2023-12-28T11:10:25;26.88;;;4.10;;
53145;SDS011;39042;53.150;5.898;2023-12-28T11:12:54;29.30;;;4.20;;
53145;SDS011;39042;53.150;5.898;2023-12-28T11:15:21;25.02;;;3.50;;
53145;SDS011;39042;53.150;5.898;2023-12-28T11:17:48;22.95;;;3.83;;
53145;SDS011;39042;53.150;5.898;2023-12-28T11:20:14;43.92;;;4.30;;
53145;SDS011;39042;53.150;5.898;2023-12-28T11:22:41;28.88;;;4.28;;
53145;SDS011;39042;53.150;5.898;2023-12-28T11:25:14;29.70;;;4.82;;
53145;SDS011;39042;53.150;5.898;2023-12-28T11:27:41;29.88;;;4.50;;
53145;SDS011;39042;53.150;5.898;2023-12-28T11:30:07;24.70;;;3.57;;
53145;SDS011;39042;53.150;5.898;2023-12-28T11:32:35;29.63;;;4.63;;
53145;SDS011;39042;53.150;5.898;2023-12-28T11:35:02;31.55;;;5.07;;
53145;SDS011;39042;53.150;5.898;2023-12-28T11:37:31;34.00;;;4.43;;
53145;SDS011;39042;53.150;5.898;2023-12-28T11:40:10;37.28;;;5.15;;
53145;SDS011;39042;53.150;5.898;2023-12-28T11:42:51;29.00;;;4.22;;
53145;SDS011;39042;53.150;5.898;2023-12-28T11:45:19;18.92;;;3.38;;
53145;SDS011;39042;53.150;5.898;2023-12-28T11:50:11;29.98;;;4.55;;
53145;SDS011;39042;53.150;5.898;2023-12-28T11:52:38;27.40;;;3.42;;
53145;SDS011;39042;53.150;5.898;2023-12-28T11:55:04;34.35;;;4.40;;
53145;SDS011;39042;53.150;5.898;2023-12-28T11:59:57;22.50;;;4.15;;
53145;SDS011;39042;53.150;5.898;2023-12-28T12:02:24;30.10;;;4.53;;
53145;SDS011;39042;53.150;5.898;2023-12-28T12:04:51;31.60;;;4.22;;
53145;SDS011;39042;53.150;5.898;2023-12-28T12:07:18;28.17;;;4.07;;
53145;SDS011;39042;53.150;5.898;2023-12-28T12:09:46;32.47;;;5.20;;
53145;SDS011;39042;53.150;5.898;2023-12-28T12:12:12;31.40;;;4.30;;
53145;SDS011;39042;53.150;5.898;2023-12-28T12:14:38;33.87;;;4.80;;
53145;SDS011;39042;53.150;5.898;2023-12-28T12:19:30;26.90;;;4.70;;
53145;SDS011;39042;53.150;5.898;2023-12-28T12:21:57;35.45;;;4.72;;
53145;SDS011;39042;53.150;5.898;2023-12-28T12:24:23;32.55;;;5.22;;
53145;SDS011;39042;53.150;5.898;2023-12-28T12:26:50;35.30;;;5.75;;
53145;SDS011;39042;53.150;5.898;2023-12-28T12:29:17;34.03;;;5.15;;
53145;SDS011;39042;53.150;5.898;2023-12-28T12:31:43;27.80;;;4.60;;
53145;SDS011;39042;53.150;5.898;2023-12-28T12:34:11;24.98;;;4.55;;
53145;SDS011;39042;53.150;5.898;2023-12-28T12:36:40;30.33;;;5.05;;
53145;SDS011;39042;53.150;5.898;2023-12-28T12:39:06;27.77;;;3.97;;
53145;SDS011;39042;53.150;5.898;2023-12-28T12:41:33;36.70;;;5.25;;
53145;SDS011;39042;53.150;5.898;2023-12-28T12:44:00;24.17;;;5.32;;
53145;SDS011;39042;53.150;5.898;2023-12-28T12:46:26;33.85;;;4.18;;
53145;SDS011;39042;53.150;5.898;2023-12-28T12:48:55;30.05;;;4.72;;
53145;SDS011;39042;53.150;5.898;2023-12-28T12:51:22;33.80;;;4.90;;
53145;SDS011;39042;53.150;5.898;2023-12-28T12:56:14;26.65;;;3.40;;
53145;SDS011;39042;53.150;5.898;2023-12-28T12:58:43;22.92;;;3.75;;
53145;SDS011;39042;53.150;5.898;2023-12-28T13:01:10;33.90;;;5.53;;
53145;SDS011;39042;53.150;5.898;2023-12-28T13:03:36;29.58;;;4.15;;
53145;SDS011;39042;53.150;5.898;2023-12-28T13:06:03;28.30;;;4.03;;
53145;SDS011;39042;53.150;5.898;2023-12-28T13:08:29;29.80;;;4.35;;
53145;SDS011;39042;53.150;5.898;2023-12-28T13:10:55;25.67;;;3.90;;
53145;SDS011;39042;53.150;5.898;2023-12-28T13:13:21;21.50;;;4.13;;
53145;SDS011;39042;53.150;5.898;2023-12-28T13:15:47;19.37;;;3.33;;
53145;SDS011;39042;53.150;5.898;2023-12-28T13:18:13;27.60;;;4.05;;
53145;SDS011;39042;53.150;5.898;2023-12-28T13:20:38;27.43;;;4.60;;
53145;SDS011;39042;53.150;5.898;2023-12-28T13:23:04;36.90;;;4.57;;
53145;SDS011;39042;53.150;5.898;2023-12-28T13:25:30;32.77;;;5.00;;
53145;SDS011;39042;53.150;5.898;2023-12-28T13:27:56;27.90;;;4.90;;
53145;SDS011;39042;53.150;5.898;2023-12-28T13:30:22;31.63;;;4.67;;
53145;SDS011;39042;53.150;5.898;2023-12-28T13:32:48;30.13;;;3.40;;
53145;SDS011;39042;53.150;5.898;2023-12-28T13:35:14;25.27;;;3.40;;
53145;SDS011;39042;53.150;5.898;2023-12-28T13:37:39;30.57;;;3.43;;
53145;SDS011;39042;53.150;5.898;2023-12-28T13:40:06;30.10;;;5.07;;
53145;SDS011;39042;53.150;5.898;2023-12-28T13:42:33;33.92;;;5.07;;
53145;SDS011;39042;53.150;5.898;2023-12-28T13:44:58;22.03;;;4.53;;
53145;SDS011;39042;53.150;5.898;2023-12-28T13:47:24;24.65;;;4.45;;
53145;SDS011;39042;53.150;5.898;2023-12-28T13:49:50;24.27;;;4.20;;
53145;SDS011;39042;53.150;5.898;2023-12-28T13:52:16;21.00;;;3.60;;
53145;SDS011;39042;53.150;5.898;2023-12-28T13:54:42;34.17;;;3.33;;
53145;SDS011;39042;53.150;5.898;2023-12-28T13:57:08;30.83;;;5.50;;
53145;SDS011;39042;53.150;5.898;2023-12-28T13:59:33;24.33;;;4.03;;
53145;SDS011;39042;53.150;5.898;2023-12-28T14:01:59;24.10;;;3.70;;
53145;SDS011;39042;53.150;5.898;2023-12-28T14:04:25;21.97;;;2.70;;
53145;SDS011;39042;53.150;5.898;2023-12-28T14:06:51;25.73;;;3.87;;
53145;SDS011;39042;53.150;5.898;2023-12-28T14:09:16;25.57;;;3.70;;
53145;SDS011;39042;53.150;5.898;2023-12-28T14:11:46;30.90;;;3.47;;
53145;SDS011;39042;53.150;5.898;2023-12-28T14:14:12;22.88;;;4.00;;
53145;SDS011;39042;53.150;5.898;2023-12-28T14:16:39;29.38;;;4.78;;
53145;SDS011;39042;53.150;5.898;2023-12-28T14:19:05;29.02;;;3.70;;
53145;SDS011;39042;53.150;5.898;2023-12-28T14:21:37;26.00;;;3.17;;
53145;SDS011;39042;53.150;5.898;2023-12-28T14:24:04;27.02;;;3.80;;
53145;SDS011;39042;53.150;5.898;2023-12-28T14:26:31;29.30;;;3.40;;
53145;SDS011;39042;53.150;5.898;2023-12-28T14:28:58;21.52;;;3.83;;
53145;SDS011;39042;53.150;5.898;2023-12-28T14:31:28;27.48;;;4.15;;
53145;SDS011;39042;53.150;5.898;2023-12-28T14:33:54;32.25;;;3.80;;
53145;SDS011;39042;53.150;5.898;2023-12-28T14:38:59;22.55;;;3.47;;
53145;SDS011;39042;53.150;5.898;2023-12-28T14:41:26;23.38;;;3.10;;
53145;SDS011;39042;53.150;5.898;2023-12-28T14:43:53;22.05;;;3.25;;
53145;SDS011;39042;53.150;5.898;2023-12-28T14:46:21;24.92;;;3.80;;
53145;SDS011;39042;53.150;5.898;2023-12-28T14:48:46;18.57;;;4.20;;
53145;SDS011;39042;53.150;5.898;2023-12-28T14:51:12;24.47;;;3.97;;
53145;SDS011;39042;53.150;5.898;2023-12-28T14:53:38;21.70;;;2.83;;
53145;SDS011;39042;53.150;5.898;2023-12-28T14:56:04;28.63;;;4.47;;
53145;SDS011;39042;53.150;5.898;2023-12-28T14:58:30;29.10;;;4.07;;
53145;SDS011;39042;53.150;5.898;2023-12-28T15:00:56;23.63;;;3.10;;
53145;SDS011;39042;53.150;5.898;2023-12-28T15:03:22;32.37;;;3.20;;
53145;SDS011;39042;53.150;5.898;2023-12-28T15:05:48;25.33;;;4.05;;
53145;SDS011;39042;53.150;5.898;2023-12-28T15:08:14;23.73;;;3.83;;
53145;SDS011;39042;53.150;5.898;2023-12-28T15:10:39;28.17;;;3.97;;
53145;SDS011;39042;53.150;5.898;2023-12-28T15:13:06;21.52;;;3.38;;
53145;SDS011;39042;53.150;5.898;2023-12-28T15:15:32;31.55;;;4.25;;
53145;SDS011;39042;53.150;5.898;2023-12-28T15:17:58;25.65;;;4.13;;
53145;SDS011;39042;53.150;5.898;2023-12-28T15:20:24;15.57;;;2.72;;
53145;SDS011;39042;53.150;5.898;2023-12-28T15:22:51;26.83;;;4.10;;
53145;SDS011;39042;53.150;5.898;2023-12-28T15:25:18;26.27;;;2.88;;
53145;SDS011;39042;53.150;5.898;2023-12-28T15:27:45;25.50;;;3.00;;
53145;SDS011;39042;53.150;5.898;2023-12-28T15:30:11;21.08;;;2.75;;
53145;SDS011;39042;53.150;5.898;2023-12-28T15:32:38;16.02;;;2.95;;
53145;SDS011;39042;53.150;5.898;2023-12-28T15:35:05;19.65;;;2.75;;
53145;SDS011;39042;53.150;5.898;2023-12-28T15:37:32;19.10;;;3.08;;
53145;SDS011;39042;53.150;5.898;2023-12-28T15:39:58;20.75;;;2.97;;
53145;SDS011;39042;53.150;5.898;2023-12-28T15:42:24;19.80;;;2.97;;
53145;SDS011;39042;53.150;5.898;2023-12-28T15:44:50;22.30;;;3.50;;
53145;SDS011;39042;53.150;5.898;2023-12-28T15:47:18;30.50;;;4.22;;
53145;SDS011;39042;53.150;5.898;2023-12-28T15:49:44;19.48;;;2.92;;
53145;SDS011;39042;53.150;5.898;2023-12-28T15:52:10;17.97;;;2.57;;
53145;SDS011;39042;53.150;5.898;2023-12-28T15:54:35;21.60;;;3.27;;